Time;durP1;ratioP1;P1;durP2;ratioP2;P2;SDS_P1;SDS_P2;PMS_P1;PMS_P2;Temp;Humidity;BMP_temperature;BMP_pressure;BME280_temperature;BME280_humidity;BME280_pressure;Samples;Min_cycle;Max_cycle;Signal;HPM_P1;HPM_P2
2021/07/16 00:02:35;;;;;;;12.83;9.70;;;;;;;21.81;74.28;99869.05;153830;1100;103312;-70
2021/07/16 00:05:40;;;;;;;14.13;10.55;;;;;;;21.79;74.57;99876.58;153917;1093;103192;-70
2021/07/16 00:08:45;;;;;;;13.00;9.00;;;;;;;21.68;74.57;99870.92;153816;1100;103131;-70
2021/07/16 00:11:50;;;;;;;12.83;9.67;;;;;;;21.64;74.84;99879.78;153823;1091;103231;-70
2021/07/16 00:14:56;;;;;;;12.07;9.17;;;;;;;21.70;74.90;99893.23;153831;1100;103122;-70
2021/07/16 00:18:01;;;;;;;13.33;9.13;;;;;;;21.80;74.84;99903.52;153921;1093;103173;-70
2021/07/16 00:21:06;;;;;;;9.93;8.03;;;;;;;21.94;75.08;99923.96;153803;1100;103148;-70
2021/07/16 00:24:11;;;;;;;13.10;8.23;;;;;;;22.03;74.73;99948.87;153836;1093;103188;-69
2021/07/16 00:27:17;;;;;;;13.40;9.03;;;;;;;22.05;74.60;99951.36;154219;1098;103181;-69
2021/07/16 00:30:22;;;;;;;13.15;9.63;;;;;;;22.06;74.73;99963.89;154469;1098;103141;-70
2021/07/16 00:33:27;;;;;;;11.20;8.90;;;;;;;22.04;74.91;100001.34;154481;1093;103291;-68
2021/07/16 00:36:32;;;;;;;11.40;8.43;;;;;;;22.18;75.06;100034.55;154433;1098;103217;-67
2021/07/16 00:39:39;;;;;;;15.10;10.40;;;;;;;22.40;75.33;100065.53;154374;1098;103184;-68
2021/07/16 00:42:45;;;;;;;12.28;7.33;;;;;;;22.31;75.35;100111.28;154541;1098;103100;-70
2021/07/16 00:45:50;;;;;;;10.20;6.78;;;;;;;22.23;75.34;100118.90;154478;1098;103121;-70
2021/07/16 00:48:55;;;;;;;8.93;5.37;;;;;;;22.07;74.97;100110.36;154410;1098;103203;-71
2021/07/16 17:41:24;;;;;;;7.70;4.70;;;;;;;24.95;63.34;100056.12;154116;1090;103141;-68
2021/07/16 17:44:29;;;;;;;4.97;3.70;;;;;;;25.06;62.82;100058.72;153847;1096;103125;-69
2021/07/16 17:47:34;;;;;;;6.20;4.03;;;;;;;25.17;62.94;100062.38;153796;1096;103246;-69
2021/07/16 17:50:40;;;;;;;8.35;4.10;;;;;;;25.25;62.87;100055.68;153797;1101;103341;-71
2021/07/16 17:53:45;;;;;;;6.00;4.43;;;;;;;25.37;62.56;100047.38;153879;1101;103272;-68
2021/07/16 17:56:50;;;;;;;7.77;4.77;;;;;;;25.43;62.47;100047.16;153874;1096;103187;-68
2021/07/16 17:59:55;;;;;;;4.93;4.43;;;;;;;25.46;62.45;100046.66;153853;1101;103196;-69
2021/07/16 18:03:01;;;;;;;5.57;4.43;;;;;;;25.49;62.43;100050.77;153837;1101;103198;-68
2021/07/16 18:06:06;;;;;;;5.53;4.13;;;;;;;25.52;62.54;100042.08;153901;1101;103150;-67
2021/07/16 18:09:11;;;;;;;5.77;4.80;;;;;;;25.58;62.59;100051.16;154122;1101;103216;-72
2021/07/16 18:12:15;;;;;;;8.35;4.60;;;;;;;25.46;62.76;100054.00;153805;1100;103128;-69
2021/07/16 18:15:21;;;;;;;7.13;4.50;;;;;;;25.31;63.03;100054.69;153864;1101;103198;-69
2021/07/16 18:18:26;;;;;;;5.20;4.07;;;;;;;25.27;63.60;100057.09;153822;1101;103151;-68
2021/07/16 18:21:31;;;;;;;4.67;3.60;;;;;;;25.27;63.97;100059.01;153877;1101;103801;-71
2021/07/16 18:24:36;;;;;;;6.73;4.00;;;;;;;25.20;64.00;100071.99;153810;1096;103256;-70
2021/07/16 18:27:41;;;;;;;6.13;4.37;;;;;;;25.13;63.84;100061.25;153926;1101;103131;-70
2021/07/16 18:30:46;;;;;;;4.40;3.93;;;;;;;24.99;64.33;100065.45;153826;1101;103186;-69
2021/07/16 18:33:52;;;;;;;4.57;4.17;;;;;;;24.82;64.78;100079.13;153854;1096;103224;-69
2021/07/16 18:36:58;;;;;;;6.50;4.85;;;;;;;24.62;64.78;100080.50;153882;1101;103129;-68
2021/07/16 18:40:04;;;;;;;10.20;4.50;;;;;;;24.42;65.18;100071.97;153845;1096;103278;-65
2021/07/16 18:43:09;;;;;;;9.57;4.70;;;;;;;24.15;65.41;100078.08;153915;1096;103221;-68
2021/07/16 18:46:14;;;;;;;8.27;5.50;;;;;;;23.90;65.37;100075.75;153760;1101;103124;-72
2021/07/16 18:49:20;;;;;;;9.17;6.33;;;;;;;23.72;65.35;100088.48;153840;1101;103147;-68
2021/07/16 18:52:25;;;;;;;19.23;15.13;;;;;;;23.60;65.48;100089.63;153811;1101;103224;-72
2021/07/16 18:55:31;;;;;;;34.33;25.97;;;;;;;23.45;65.70;100088.24;153900;1096;103284;-69
2021/07/16 18:58:36;;;;;;;28.10;22.30;;;;;;;23.37;66.17;100102.25;153908;1096;103131;-69
2021/07/16 19:01:42;;;;;;;18.27;14.23;;;;;;;23.30;66.31;100112.44;153780;1096;103200;-70
2021/07/16 19:04:47;;;;;;;11.50;8.47;;;;;;;23.22;66.39;100115.55;153831;1101;103234;-70
2021/07/16 19:07:52;;;;;;;10.97;8.10;;;;;;;23.17;66.25;100118.15;153800;1101;103139;-70
2021/07/16 19:10:57;;;;;;;10.33;6.70;;;;;;;23.12;66.47;100110.72;153916;1101;103243;-69
2021/07/16 19:14:02;;;;;;;9.03;5.93;;;;;;;23.06;66.77;100104.33;153857;1096;103246;-69
2021/07/16 19:17:07;;;;;;;8.07;6.03;;;;;;;22.97;66.52;100110.35;153743;1101;103605;-69
2021/07/16 19:20:13;;;;;;;7.23;5.27;;;;;;;22.84;67.06;100108.70;153847;1096;103217;-69
2021/07/16 19:23:18;;;;;;;8.03;4.80;;;;;;;22.76;66.97;100112.60;153578;1101;103195;-70
2021/07/16 19:26:23;;;;;;;12.03;5.87;;;;;;;22.69;67.39;100107.30;153861;1096;103281;-68
2021/07/16 19:29:28;;;;;;;6.00;5.40;;;;;;;22.64;67.26;100126.20;153846;1101;103199;-67
2021/07/16 19:32:33;;;;;;;7.30;5.40;;;;;;;22.60;67.60;100119.59;153791;1101;103563;-67
2021/07/16 19:35:38;;;;;;;8.20;6.03;;;;;;;22.54;67.44;100128.69;153788;1096;103123;-68
2021/07/16 19:38:43;;;;;;;6.37;5.07;;;;;;;22.45;67.72;100121.94;153857;1096;103142;-69
2021/07/16 19:41:48;;;;;;;8.33;4.77;;;;;;;22.40;67.62;100119.08;153804;1101;103227;-72
2021/07/16 19:44:53;;;;;;;6.23;5.63;;;;;;;22.35;68.20;100112.47;154068;1101;103193;-70
2021/07/16 19:47:58;;;;;;;6.80;5.03;;;;;;;22.30;67.74;100114.23;153824;1096;103119;-70
2021/07/16 19:51:04;;;;;;;6.30;5.20;;;;;;;22.24;67.89;100115.95;153819;1096;103223;-70
2021/07/16 19:54:09;;;;;;;6.45;5.80;;;;;;;22.17;67.93;100115.22;153809;1101;103132;-70
2021/07/16 19:57:15;;;;;;;8.53;5.47;;;;;;;22.07;68.13;100117.69;153998;1096;103218;-72
2021/07/16 20:00:23;;;;;;;8.30;5.83;;;;;;;22.02;68.30;100117.55;154211;1096;103224;-70
2021/07/16 20:03:28;;;;;;;8.70;5.07;;;;;;;21.99;68.13;100112.59;153813;1101;103195;-71
2021/07/16 20:06:33;;;;;;;6.57;5.53;;;;;;;21.98;68.38;100122.64;153784;1101;103113;-70
2021/07/16 20:09:38;;;;;;;9.33;5.50;;;;;;;21.98;68.50;100121.80;153920;1101;103516;-71
2021/07/16 20:12:44;;;;;;;8.57;5.60;;;;;;;21.94;68.59;100126.86;154038;1101;103265;-69
2021/07/16 20:15:49;;;;;;;7.03;6.33;;;;;;;21.88;68.52;100125.07;153955;1101;103195;-72
2021/07/16 20:18:54;;;;;;;7.43;5.50;;;;;;;21.82;68.71;100118.67;154060;1101;103193;-70
2021/07/16 20:21:58;;;;;;;5.47;4.97;;;;;;;21.80;68.79;100120.79;153914;1101;103129;-69
2021/07/16 20:25:06;;;;;;;6.03;5.13;;;;;;;21.75;68.87;100113.34;153957;1101;103181;-69
2021/07/16 20:28:13;;;;;;;10.73;6.30;;;;;;;21.71;68.92;100108.59;153871;1101;103269;-68
2021/07/16 20:31:18;;;;;;;7.43;5.87;;;;;;;21.69;69.03;100113.42;153882;1101;103179;-71
2021/07/16 20:34:24;;;;;;;7.43;5.50;;;;;;;21.63;68.92;100117.06;154132;1096;103136;-73
2021/07/16 20:37:29;;;;;;;7.00;4.87;;;;;;;21.60;69.08;100128.39;154080;1101;103105;-73
2021/07/16 20:40:35;;;;;;;6.70;5.17;;;;;;;21.62;69.18;100128.99;154106;1101;103131;-72
2021/07/16 20:43:43;;;;;;;5.97;5.33;;;;;;;21.62;69.12;100129.81;154089;1101;103190;-70
2021/07/16 20:46:48;;;;;;;12.10;7.03;;;;;;;21.61;69.10;100117.28;154082;1096;103218;-70
2021/07/16 20:49:53;;;;;;;7.57;5.60;;;;;;;21.60;69.36;100121.07;154043;1101;103150;-70
2021/07/16 20:52:58;;;;;;;7.80;6.30;;;;;;;21.61;69.28;100119.17;154018;1101;103218;-71
2021/07/16 20:56:03;;;;;;;6.70;6.00;;;;;;;21.45;69.64;100115.21;153810;1101;103220;-71
2021/07/16 20:59:13;;;;;;;7.63;5.77;;;;;;;21.49;69.49;100117.23;154163;1094;103271;-71
2021/07/16 21:02:18;;;;;;;6.43;5.47;;;;;;;21.52;69.38;100119.50;154248;1101;103217;-70
2021/07/16 21:05:23;;;;;;;8.53;6.27;;;;;;;21.56;69.59;100120.70;154228;1095;103214;-73
2021/07/16 21:08:29;;;;;;;8.00;6.03;;;;;;;21.62;69.70;100115.42;154215;1101;103224;-73
2021/07/16 21:11:34;;;;;;;9.80;6.43;;;;;;;21.61;69.61;100121.89;154163;1101;103142;-75
2021/07/16 21:14:39;;;;;;;8.60;6.43;;;;;;;21.56;69.81;100125.30;154267;1101;103675;-74
2021/07/16 21:17:44;;;;;;;9.80;6.25;;;;;;;21.52;69.66;100124.93;154224;1101;103144;-73
2021/07/16 21:20:50;;;;;;;7.10;5.30;;;;;;;21.53;69.80;100121.14;154095;1101;103195;-74
2021/07/16 21:23:55;;;;;;;7.90;5.90;;;;;;;21.58;69.45;100127.80;154083;1101;103142;-73
2021/07/16 21:27:00;;;;;;;7.47;6.67;;;;;;;21.55;69.52;100129.06;154154;1101;103128;-74
2021/07/16 21:30:07;;;;;;;8.67;6.73;;;;;;;21.50;69.72;100128.94;154175;1101;103270;-74
2021/07/16 21:33:13;;;;;;;8.53;6.87;;;;;;;21.44;69.71;100122.53;154186;1101;103262;-72
2021/07/16 21:36:18;;;;;;;8.60;6.70;;;;;;;21.36;69.85;100122.79;154067;1096;103195;-72
2021/07/16 21:39:23;;;;;;;9.90;6.00;;;;;;;21.36;69.88;100129.07;154032;1096;103582;-69
2021/07/16 21:42:28;;;;;;;7.10;5.47;;;;;;;21.38;69.58;100134.25;153970;1101;103176;-70
2021/07/16 21:45:33;;;;;;;8.37;6.10;;;;;;;21.35;69.56;100135.54;153841;1101;103297;-71
2021/07/16 21:48:38;;;;;;;6.97;6.27;;;;;;;21.33;69.80;100136.83;153784;1101;103215;-71
2021/07/16 21:51:43;;;;;;;8.60;7.55;;;;;;;21.33;69.63;100143.08;153982;1096;103156;-72
2021/07/16 21:54:48;;;;;;;8.87;7.27;;;;;;;21.26;69.73;100144.22;154016;1096;104062;-73
2021/07/16 21:57:53;;;;;;;9.90;7.40;;;;;;;21.02;69.92;100140.53;153941;1101;103128;-73
2021/07/16 22:00:58;;;;;;;9.03;6.40;;;;;;;20.87;70.09;100144.41;154024;1096;103528;-73
2021/07/16 22:04:04;;;;;;;7.15;6.00;;;;;;;20.88;70.09;100146.08;154013;1101;103193;-72
2021/07/16 22:07:09;;;;;;;8.17;7.00;;;;;;;20.79;70.03;100147.42;153981;1101;103193;-72
2021/07/16 22:10:15;;;;;;;7.97;6.90;;;;;;;20.65;70.16;100135.87;153988;1101;103180;-72
2021/07/16 22:13:20;;;;;;;8.97;6.97;;;;;;;20.52;70.31;100142.19;153954;1101;103195;-72
2021/07/16 22:16:25;;;;;;;9.80;6.93;;;;;;;20.50;70.42;100138.05;154020;1096;103547;-71
2021/07/16 22:19:30;;;;;;;7.80;6.10;;;;;;;20.49;70.32;100133.67;154069;1101;103169;-72
2021/07/16 22:22:35;;;;;;;8.00;5.93;;;;;;;20.46;70.21;100115.13;153925;1101;103195;-71
2021/07/16 22:25:41;;;;;;;7.40;6.60;;;;;;;20.43;70.32;100110.17;153919;1095;103125;-73
2021/07/16 22:28:46;;;;;;;11.00;7.13;;;;;;;20.35;70.57;100117.52;153989;1096;103152;-71
2021/07/16 22:31:51;;;;;;;8.20;7.40;;;;;;;20.29;70.50;100114.88;153942;1101;103200;-71
2021/07/16 22:34:56;;;;;;;10.90;7.50;;;;;;;20.22;70.64;100104.07;153978;1096;103225;-72
2021/07/16 22:38:01;;;;;;;7.83;6.53;;;;;;;20.18;70.83;100108.27;153910;1101;103172;-72
2021/07/16 22:41:07;;;;;;;11.47;6.80;;;;;;;20.18;70.70;100113.69;153906;1101;103175;-71
2021/07/16 22:44:24;;;;;;;10.50;6.70;;;;;;;20.13;70.77;100125.20;153698;1101;103122;-72
2021/07/16 22:47:34;;;;;;;7.97;6.37;;;;;;;20.13;70.91;100124.34;153903;1101;103272;-70
2021/07/16 22:50:39;;;;;;;7.77;6.60;;;;;;;20.07;70.90;100130.64;153856;1101;103265;-72
2021/07/16 22:53:44;;;;;;;9.27;7.03;;;;;;;19.95;70.91;100128.63;153962;1101;103136;-72
2021/07/16 22:56:49;;;;;;;9.97;6.40;;;;;;;19.92;71.05;100120.95;154044;1101;103110;-71
2021/07/16 22:59:54;;;;;;;9.75;6.30;;;;;;;19.91;70.84;100113.87;153812;1101;103103;-71
2021/07/16 23:03:00;;;;;;;9.70;6.90;;;;;;;19.88;71.00;100108.91;153960;1096;103470;-72
2021/07/16 23:06:06;;;;;;;11.10;7.10;;;;;;;19.91;71.19;100107.63;153951;1101;103268;-72
2021/07/16 23:09:11;;;;;;;14.80;7.47;;;;;;;19.88;70.78;100098.08;154023;1096;103139;-72
2021/07/16 23:12:16;;;;;;;12.73;8.20;;;;;;;19.76;70.99;100099.80;153966;1101;103219;-72
2021/07/16 23:15:21;;;;;;;11.83;7.30;;;;;;;19.67;71.14;100087.52;153963;1096;103139;-72
2021/07/16 23:18:26;;;;;;;10.27;6.67;;;;;;;19.50;71.44;100098.87;153941;1096;103224;-72
2021/07/16 23:21:31;;;;;;;9.47;7.80;;;;;;;19.42;71.60;100091.01;153899;1096;103110;-72
2021/07/16 23:24:37;;;;;;;10.40;8.00;;;;;;;19.48;71.64;100087.43;153899;1096;103139;-72
2021/07/16 23:27:42;;;;;;;8.60;7.70;;;;;;;19.49;71.69;100086.38;154021;1096;103141;-71
2021/07/16 23:30:48;;;;;;;9.30;7.65;;;;;;;19.46;71.61;100077.84;153995;1101;103176;-72
2021/07/16 23:33:53;;;;;;;10.20;7.20;;;;;;;19.47;71.87;100074.11;153929;1093;103147;-72
2021/07/16 23:36:57;;;;;;;8.83;7.00;;;;;;;19.46;71.66;100067.88;153967;1093;103573;-76
2021/07/16 23:40:02;;;;;;;8.40;7.50;;;;;;;19.48;71.93;100067.67;153983;1101;103220;-77
2021/07/16 23:43:08;;;;;;;8.97;8.00;;;;;;;19.48;71.63;100087.43;153963;1101;103940;-76
2021/07/16 23:46:13;;;;;;;8.53;7.47;;;;;;;19.45;71.52;100082.44;154108;1101;103140;-76
2021/07/16 23:49:21;;;;;;;8.37;7.43;;;;;;;19.31;71.66;100083.56;153998;1101;103261;-76
2021/07/16 23:52:26;;;;;;;7.90;6.30;;;;;;;19.28;71.95;100078.56;154003;1093;103224;-77
2021/07/16 23:55:31;;;;;;;8.13;6.70;;;;;;;19.32;71.89;100085.20;154527;1093;103187;-76
2021/07/16 23:58:36;;;;;;;8.20;7.13;;;;;;;19.35;71.87;100090.20;154494;1098;103107;-77
